Terminal Aerodrome Forecast
Issued by NWS Sterling, VA

Current Version | Previous Version | Text Only | Print | Product List | Glossary Off
Versions: 1 2 3 4 5 6 7 8 9 10 11 12 13 14 15 16

000
FTUS41 KLWX 132300 AAA
TAFMRB
TAF AMD
KMRB 132304Z 1323/1418 16012KT P6SM SCT250
     FM140100 19008KT P6SM SCT250
     FM140900 19008KT P6SM BKN090
     FM141600 19016G24KT P6SM SCT050 BKN250=

USA.gov is the U.S. government's official web portal to all federal, state and local government web resources and services.